sensor_id;sensor_type;location;lat;lon;timestamp;temperature;humidity
38938;DHT22;24727;51.974;20.868;2023-11-21T00:01:02;1.90;1.00
38938;DHT22;24727;51.974;20.868;2023-11-21T00:03:30;1.90;1.00
38938;DHT22;24727;51.974;20.868;2023-11-21T00:05:56;1.90;1.00
38938;DHT22;24727;51.974;20.868;2023-11-21T00:08:22;2.00;1.00
38938;DHT22;24727;51.974;20.868;2023-11-21T00:10:48;2.00;1.00
38938;DHT22;24727;51.974;20.868;2023-11-21T00:13:16;2.10;1.00
38938;DHT22;24727;51.974;20.868;2023-11-21T00:15:43;2.20;1.00
38938;DHT22;24727;51.974;20.868;2023-11-21T00:18:08;2.10;1.00
38938;DHT22;24727;51.974;20.868;2023-11-21T00:20:34;2.00;1.00
38938;DHT22;24727;51.974;20.868;2023-11-21T00:23:02;1.80;1.00
38938;DHT22;24727;51.974;20.868;2023-11-21T00:25:29;1.60;1.00
38938;DHT22;24727;51.974;20.868;2023-11-21T00:27:57;1.90;1.00
38938;DHT22;24727;51.974;20.868;2023-11-21T00:30:23;1.90;1.00
38938;DHT22;24727;51.974;20.868;2023-11-21T00:32:49;1.90;1.00
38938;DHT22;24727;51.974;20.868;2023-11-21T00:35:15;1.90;1.00
38938;DHT22;24727;51.974;20.868;2023-11-21T00:37:41;1.60;1.00
38938;DHT22;24727;51.974;20.868;2023-11-21T00:40:08;1.80;1.90
38938;DHT22;24727;51.974;20.868;2023-11-21T00:42:35;1.80;1.00
38938;DHT22;24727;51.974;20.868;2023-11-21T00:45:03;1.90;1.00
38938;DHT22;24727;51.974;20.868;2023-11-21T00:47:31;1.80;1.00
38938;DHT22;24727;51.974;20.868;2023-11-21T00:50:04;1.70;1.00
38938;DHT22;24727;51.974;20.868;2023-11-21T00:52:32;1.80;1.00
38938;DHT22;24727;51.974;20.868;2023-11-21T00:54:58;1.90;1.00
38938;DHT22;24727;51.974;20.868;2023-11-21T00:57:26;2.00;3.70
38938;DHT22;24727;51.974;20.868;2023-11-21T00:59:53;1.90;1.00
38938;DHT22;24727;51.974;20.868;2023-11-21T01:02:19;1.80;1.00
38938;DHT22;24727;51.974;20.868;2023-11-21T01:04:45;1.90;1.00
38938;DHT22;24727;51.974;20.868;2023-11-21T01:07:11;1.70;1.00
38938;DHT22;24727;51.974;20.868;2023-11-21T01:09:43;1.90;1.60
38938;DHT22;24727;51.974;20.868;2023-11-21T01:12:09;2.10;7.60
38938;DHT22;24727;51.974;20.868;2023-11-21T01:14:36;2.20;2.20
38938;DHT22;24727;51.974;20.868;2023-11-21T01:17:04;2.30;6.10
38938;DHT22;24727;51.974;20.868;2023-11-21T01:19:32;2.20;3.10
38938;DHT22;24727;51.974;20.868;2023-11-21T01:21:58;2.20;2.20
38938;DHT22;24727;51.974;20.868;2023-11-21T01:24:24;2.30;6.70
38938;DHT22;24727;51.974;20.868;2023-11-21T01:26:50;2.30;3.70
38938;DHT22;24727;51.974;20.868;2023-11-21T01:29:22;2.20;1.00
38938;DHT22;24727;51.974;20.868;2023-11-21T01:31:48;2.30;3.70
38938;DHT22;24727;51.974;20.868;2023-11-21T01:34:15;2.40;7.00
38938;DHT22;24727;51.974;20.868;2023-11-21T01:36:45;2.30;1.00
38938;DHT22;24727;51.974;20.868;2023-11-21T01:39:10;2.40;1.80
38938;DHT22;24727;51.974;20.868;2023-11-21T01:41:41;2.30;1.00
38938;DHT22;24727;51.974;20.868;2023-11-21T01:44:10;2.10;1.00
38938;DHT22;24727;51.974;20.868;2023-11-21T01:46:42;2.10;1.00
38938;DHT22;24727;51.974;20.868;2023-11-21T01:49:10;2.10;1.00
38938;DHT22;24727;51.974;20.868;2023-11-21T01:51:41;1.90;1.00
38938;DHT22;24727;51.974;20.868;2023-11-21T01:54:09;2.10;2.50
38938;DHT22;24727;51.974;20.868;2023-11-21T01:56:38;1.90;1.00
38938;DHT22;24727;51.974;20.868;2023-11-21T01:59:05;1.70;1.00
38938;DHT22;24727;51.974;20.868;2023-11-21T02:01:44;1.90;1.00
38938;DHT22;24727;51.974;20.868;2023-11-21T02:04:14;1.90;1.00
38938;DHT22;24727;51.974;20.868;2023-11-21T02:06:41;1.80;1.00
38938;DHT22;24727;51.974;20.868;2023-11-21T02:09:08;1.70;1.00
38938;DHT22;24727;51.974;20.868;2023-11-21T02:11:35;1.70;1.00
38938;DHT22;24727;51.974;20.868;2023-11-21T02:14:07;1.80;1.00
38938;DHT22;24727;51.974;20.868;2023-11-21T02:16:36;2.00;1.40
38938;DHT22;24727;51.974;20.868;2023-11-21T02:19:05;1.90;1.00
38938;DHT22;24727;51.974;20.868;2023-11-21T02:21:35;2.00;3.70
38938;DHT22;24727;51.974;20.868;2023-11-21T02:24:06;1.90;1.00
38938;DHT22;24727;51.974;20.868;2023-11-21T02:26:33;1.80;1.00
38938;DHT22;24727;51.974;20.868;2023-11-21T02:29:00;1.80;1.00
38938;DHT22;24727;51.974;20.868;2023-11-21T02:31:28;1.80;1.00
38938;DHT22;24727;51.974;20.868;2023-11-21T02:33:56;1.90;1.00
38938;DHT22;24727;51.974;20.868;2023-11-21T02:36:22;2.00;4.20
38938;DHT22;24727;51.974;20.868;2023-11-21T02:38:49;1.90;1.00
38938;DHT22;24727;51.974;20.868;2023-11-21T02:41:16;1.90;1.20
38938;DHT22;24727;51.974;20.868;2023-11-21T02:43:42;1.60;1.00
38938;DHT22;24727;51.974;20.868;2023-11-21T02:46:18;1.70;1.00
38938;DHT22;24727;51.974;20.868;2023-11-21T02:48:44;1.60;1.00
38938;DHT22;24727;51.974;20.868;2023-11-21T02:51:10;1.60;1.00
38938;DHT22;24727;51.974;20.868;2023-11-21T02:53:35;1.50;1.00
38938;DHT22;24727;51.974;20.868;2023-11-21T02:56:04;1.70;1.00
38938;DHT22;24727;51.974;20.868;2023-11-21T02:58:30;1.70;1.00
38938;DHT22;24727;51.974;20.868;2023-11-21T03:00:56;1.70;1.00
38938;DHT22;24727;51.974;20.868;2023-11-21T03:03:29;1.70;1.00
38938;DHT22;24727;51.974;20.868;2023-11-21T03:05:57;1.60;1.00
38938;DHT22;24727;51.974;20.868;2023-11-21T03:08:22;1.60;1.00
38938;DHT22;24727;51.974;20.868;2023-11-21T03:10:48;1.60;1.00
38938;DHT22;24727;51.974;20.868;2023-11-21T03:13:14;1.60;1.00
38938;DHT22;24727;51.974;20.868;2023-11-21T03:15:40;1.60;1.00
38938;DHT22;24727;51.974;20.868;2023-11-21T03:18:06;1.50;1.00
38938;DHT22;24727;51.974;20.868;2023-11-21T03:20:33;1.70;4.10
38938;DHT22;24727;51.974;20.868;2023-11-21T03:23:01;1.90;6.20
38938;DHT22;24727;51.974;20.868;2023-11-21T03:25:28;2.00;7.80
38938;DHT22;24727;51.974;20.868;2023-11-21T03:27:55;2.00;7.50
38938;DHT22;24727;51.974;20.868;2023-11-21T03:30:21;1.80;1.00
38938;DHT22;24727;51.974;20.868;2023-11-21T03:32:47;1.60;1.00
38938;DHT22;24727;51.974;20.868;2023-11-21T03:35:13;1.60;1.00
38938;DHT22;24727;51.974;20.868;2023-11-21T03:37:40;1.40;1.00
38938;DHT22;24727;51.974;20.868;2023-11-21T03:40:07;1.30;1.00
38938;DHT22;24727;51.974;20.868;2023-11-21T03:42:39;1.50;1.00
38938;DHT22;24727;51.974;20.868;2023-11-21T03:45:06;1.40;1.00
38938;DHT22;24727;51.974;20.868;2023-11-21T03:47:32;1.30;1.00
38938;DHT22;24727;51.974;20.868;2023-11-21T03:49:58;1.40;1.00
38938;DHT22;24727;51.974;20.868;2023-11-21T03:52:25;1.20;1.00
38938;DHT22;24727;51.974;20.868;2023-11-21T03:54:52;1.40;3.30
38938;DHT22;24727;51.974;20.868;2023-11-21T03:57:24;1.50;2.40
38938;DHT22;24727;51.974;20.868;2023-11-21T03:59:50;1.30;1.00
38938;DHT22;24727;51.974;20.868;2023-11-21T04:02:16;1.40;1.00
38938;DHT22;24727;51.974;20.868;2023-11-21T04:04:42;1.60;2.60
38938;DHT22;24727;51.974;20.868;2023-11-21T04:07:09;1.40;1.00
38938;DHT22;24727;51.974;20.868;2023-11-21T04:09:35;1.60;6.60
38938;DHT22;24727;51.974;20.868;2023-11-21T04:12:02;1.60;1.50
38938;DHT22;24727;51.974;20.868;2023-11-21T04:14:29;1.40;1.00
38938;DHT22;24727;51.974;20.868;2023-11-21T04:16:55;1.30;1.00
38938;DHT22;24727;51.974;20.868;2023-11-21T04:19:21;1.40;1.00
38938;DHT22;24727;51.974;20.868;2023-11-21T04:21:53;1.40;1.00
38938;DHT22;24727;51.974;20.868;2023-11-21T04:24:19;1.30;1.00
38938;DHT22;24727;51.974;20.868;2023-11-21T04:26:45;1.10;1.00
38938;DHT22;24727;51.974;20.868;2023-11-21T04:29:11;1.30;1.00
38938;DHT22;24727;51.974;20.868;2023-11-21T04:31:36;1.30;1.20
38938;DHT22;24727;51.974;20.868;2023-11-21T04:34:03;1.50;6.30
38938;DHT22;24727;51.974;20.868;2023-11-21T04:36:30;1.60;5.80
38938;DHT22;24727;51.974;20.868;2023-11-21T04:39:06;1.50;2.30
38938;DHT22;24727;51.974;20.868;2023-11-21T04:41:32;1.50;2.10
38938;DHT22;24727;51.974;20.868;2023-11-21T04:43:58;1.30;1.00
38938;DHT22;24727;51.974;20.868;2023-11-21T04:46:26;1.40;1.00
38938;DHT22;24727;51.974;20.868;2023-11-21T04:48:52;1.60;1.00
38938;DHT22;24727;51.974;20.868;2023-11-21T04:51:19;1.30;1.00
38938;DHT22;24727;51.974;20.868;2023-11-21T04:53:45;1.40;1.00
38938;DHT22;24727;51.974;20.868;2023-11-21T04:56:12;1.40;1.00
38938;DHT22;24727;51.974;20.868;2023-11-21T04:58:39;1.60;5.30
38938;DHT22;24727;51.974;20.868;2023-11-21T05:01:07;1.60;5.30
38938;DHT22;24727;51.974;20.868;2023-11-21T05:03:32;1.60;5.00
38938;DHT22;24727;51.974;20.868;2023-11-21T05:06:00;1.60;2.90
38938;DHT22;24727;51.974;20.868;2023-11-21T05:08:26;1.60;4.50
38938;DHT22;24727;51.974;20.868;2023-11-21T05:10:53;1.80;9.10
38938;DHT22;24727;51.974;20.868;2023-11-21T05:13:20;1.60;1.00
38938;DHT22;24727;51.974;20.868;2023-11-21T05:15:46;1.40;1.00
38938;DHT22;24727;51.974;20.868;2023-11-21T05:18:11;1.30;1.00
38938;DHT22;24727;51.974;20.868;2023-11-21T05:20:39;1.30;1.00
38938;DHT22;24727;51.974;20.868;2023-11-21T05:23:07;1.30;1.00
38938;DHT22;24727;51.974;20.868;2023-11-21T05:25:34;1.60;2.80
38938;DHT22;24727;51.974;20.868;2023-11-21T05:28:00;1.40;1.00
38938;DHT22;24727;51.974;20.868;2023-11-21T05:30:28;1.50;1.00
38938;DHT22;24727;51.974;20.868;2023-11-21T05:32:54;1.40;1.00
38938;DHT22;24727;51.974;20.868;2023-11-21T05:35:26;1.10;1.00
38938;DHT22;24727;51.974;20.868;2023-11-21T05:37:54;1.20;1.00
38938;DHT22;24727;51.974;20.868;2023-11-21T05:40:20;1.00;1.00
38938;DHT22;24727;51.974;20.868;2023-11-21T05:42:50;0.80;1.00
38938;DHT22;24727;51.974;20.868;2023-11-21T05:45:17;1.10;1.00
38938;DHT22;24727;51.974;20.868;2023-11-21T05:47:46;1.00;1.00
38938;DHT22;24727;51.974;20.868;2023-11-21T05:50:13;1.10;1.00
38938;DHT22;24727;51.974;20.868;2023-11-21T05:52:44;1.50;9.30
38938;DHT22;24727;51.974;20.868;2023-11-21T05:55:11;1.40;3.40
38938;DHT22;24727;51.974;20.868;2023-11-21T05:57:38;1.10;1.00
38938;DHT22;24727;51.974;20.868;2023-11-21T06:00:12;1.20;1.00
38938;DHT22;24727;51.974;20.868;2023-11-21T06:02:46;1.40;5.00
38938;DHT22;24727;51.974;20.868;2023-11-21T06:05:13;1.40;1.20
38938;DHT22;24727;51.974;20.868;2023-11-21T06:07:39;1.40;1.00
38938;DHT22;24727;51.974;20.868;2023-11-21T06:10:07;1.40;2.90
38938;DHT22;24727;51.974;20.868;2023-11-21T06:12:39;1.40;3.50
38938;DHT22;24727;51.974;20.868;2023-11-21T06:15:07;1.30;1.00
38938;DHT22;24727;51.974;20.868;2023-11-21T06:17:36;1.40;1.00
38938;DHT22;24727;51.974;20.868;2023-11-21T06:20:06;1.50;5.80
38938;DHT22;24727;51.974;20.868;2023-11-21T06:22:39;1.50;5.00
38938;DHT22;24727;51.974;20.868;2023-11-21T06:25:06;1.40;1.00
38938;DHT22;24727;51.974;20.868;2023-11-21T06:27:40;1.30;1.00
38938;DHT22;24727;51.974;20.868;2023-11-21T06:30:07;1.30;1.00
38938;DHT22;24727;51.974;20.868;2023-11-21T06:32:36;1.10;1.00
38938;DHT22;24727;51.974;20.868;2023-11-21T06:35:03;1.00;1.00
38938;DHT22;24727;51.974;20.868;2023-11-21T06:37:38;1.10;1.00
38938;DHT22;24727;51.974;20.868;2023-11-21T06:40:05;1.10;1.00
38938;DHT22;24727;51.974;20.868;2023-11-21T06:42:33;1.30;4.50
38938;DHT22;24727;51.974;20.868;2023-11-21T06:45:11;1.50;4.90
38938;DHT22;24727;51.974;20.868;2023-11-21T06:47:38;1.30;1.00
38938;DHT22;24727;51.974;20.868;2023-11-21T06:50:11;1.40;1.00
38938;DHT22;24727;51.974;20.868;2023-11-21T06:52:39;1.20;1.00
38938;DHT22;24727;51.974;20.868;2023-11-21T06:55:06;1.10;1.00
38938;DHT22;24727;51.974;20.868;2023-11-21T06:57:33;1.10;1.00
38938;DHT22;24727;51.974;20.868;2023-11-21T07:00:00;1.00;1.00
38938;DHT22;24727;51.974;20.868;2023-11-21T07:02:25;1.20;1.00
38938;DHT22;24727;51.974;20.868;2023-11-21T07:04:51;1.30;1.20
38938;DHT22;24727;51.974;20.868;2023-11-21T07:07:19;1.50;6.80
38938;DHT22;24727;51.974;20.868;2023-11-21T07:09:45;1.70;5.50
38938;DHT22;24727;51.974;20.868;2023-11-21T07:12:11;1.70;8.00
38938;DHT22;24727;51.974;20.868;2023-11-21T07:14:37;1.70;4.00
38938;DHT22;24727;51.974;20.868;2023-11-21T07:17:05;1.30;1.00
38938;DHT22;24727;51.974;20.868;2023-11-21T07:19:38;1.30;1.00
38938;DHT22;24727;51.974;20.868;2023-11-21T07:22:05;1.40;1.00
38938;DHT22;24727;51.974;20.868;2023-11-21T07:24:32;1.30;1.00
38938;DHT22;24727;51.974;20.868;2023-11-21T07:26:59;1.20;1.00
38938;DHT22;24727;51.974;20.868;2023-11-21T07:29:26;1.20;1.00
38938;DHT22;24727;51.974;20.868;2023-11-21T07:31:53;0.90;1.00
38938;DHT22;24727;51.974;20.868;2023-11-21T07:34:20;0.90;1.00
38938;DHT22;24727;51.974;20.868;2023-11-21T07:36:47;0.90;1.00
38938;DHT22;24727;51.974;20.868;2023-11-21T07:39:13;0.80;1.00
38938;DHT22;24727;51.974;20.868;2023-11-21T07:41:41;0.80;1.00
38938;DHT22;24727;51.974;20.868;2023-11-21T07:44:14;0.80;1.00
38938;DHT22;24727;51.974;20.868;2023-11-21T07:46:41;1.00;1.00
38938;DHT22;24727;51.974;20.868;2023-11-21T07:49:13;1.00;1.00
38938;DHT22;24727;51.974;20.868;2023-11-21T07:51:42;1.10;1.00
38938;DHT22;24727;51.974;20.868;2023-11-21T07:54:08;1.20;1.00
38938;DHT22;24727;51.974;20.868;2023-11-21T07:56:34;1.20;1.10
38938;DHT22;24727;51.974;20.868;2023-11-21T07:59:01;1.40;5.80
38938;DHT22;24727;51.974;20.868;2023-11-21T08:01:26;1.20;1.90
38938;DHT22;24727;51.974;20.868;2023-11-21T08:03:54;1.20;1.00
38938;DHT22;24727;51.974;20.868;2023-11-21T08:06:23;1.30;4.40
38938;DHT22;24727;51.974;20.868;2023-11-21T08:08:51;1.60;4.60
38938;DHT22;24727;51.974;20.868;2023-11-21T08:11:17;1.70;7.20
38938;DHT22;24727;51.974;20.868;2023-11-21T08:13:43;1.90;5.00
38938;DHT22;24727;51.974;20.868;2023-11-21T08:16:10;1.90;1.00
38938;DHT22;24727;51.974;20.868;2023-11-21T08:18:36;1.50;1.00
38938;DHT22;24727;51.974;20.868;2023-11-21T08:21:02;1.50;1.00
38938;DHT22;24727;51.974;20.868;2023-11-21T08:23:29;1.40;1.00
38938;DHT22;24727;51.974;20.868;2023-11-21T08:26:04;1.20;1.00
38938;DHT22;24727;51.974;20.868;2023-11-21T08:28:32;1.30;1.00
38938;DHT22;24727;51.974;20.868;2023-11-21T08:30:57;1.00;1.00
38938;DHT22;24727;51.974;20.868;2023-11-21T08:33:25;1.20;1.00
38938;DHT22;24727;51.974;20.868;2023-11-21T08:35:52;0.90;1.00
38938;DHT22;24727;51.974;20.868;2023-11-21T08:38:18;0.90;1.00
38938;DHT22;24727;51.974;20.868;2023-11-21T08:40:44;1.10;1.00
38938;DHT22;24727;51.974;20.868;2023-11-21T08:43:10;1.10;1.00
38938;DHT22;24727;51.974;20.868;2023-11-21T08:45:37;1.10;1.00
38938;DHT22;24727;51.974;20.868;2023-11-21T08:48:03;1.20;1.00
38938;DHT22;24727;51.974;20.868;2023-11-21T08:50:30;1.20;1.00
38938;DHT22;24727;51.974;20.868;2023-11-21T08:52:58;1.10;1.00
38938;DHT22;24727;51.974;20.868;2023-11-21T08:55:24;1.10;1.00
38938;DHT22;24727;51.974;20.868;2023-11-21T08:57:56;1.00;1.00
38938;DHT22;24727;51.974;20.868;2023-11-21T09:00:24;0.90;1.00
38938;DHT22;24727;51.974;20.868;2023-11-21T09:02:50;0.90;1.00
38938;DHT22;24727;51.974;20.868;2023-11-21T09:05:22;1.10;1.00
38938;DHT22;24727;51.974;20.868;2023-11-21T09:07:48;1.30;1.00
38938;DHT22;24727;51.974;20.868;2023-11-21T09:10:15;1.20;1.00
38938;DHT22;24727;51.974;20.868;2023-11-21T09:12:41;1.30;1.00
38938;DHT22;24727;51.974;20.868;2023-11-21T09:15:09;1.30;1.00
38938;DHT22;24727;51.974;20.868;2023-11-21T09:17:39;1.50;1.00
38938;DHT22;24727;51.974;20.868;2023-11-21T09:20:07;1.50;1.00
38938;DHT22;24727;51.974;20.868;2023-11-21T09:22:36;1.40;1.00
38938;DHT22;24727;51.974;20.868;2023-11-21T09:25:03;1.40;1.00
38938;DHT22;24727;51.974;20.868;2023-11-21T09:27:31;1.50;1.00
38938;DHT22;24727;51.974;20.868;2023-11-21T09:29:58;1.50;1.00
38938;DHT22;24727;51.974;20.868;2023-11-21T09:32:25;1.50;1.00
38938;DHT22;24727;51.974;20.868;2023-11-21T09:34:53;1.50;1.00
38938;DHT22;24727;51.974;20.868;2023-11-21T09:37:21;1.50;1.00
38938;DHT22;24727;51.974;20.868;2023-11-21T09:39:47;1.50;1.00
38938;DHT22;24727;51.974;20.868;2023-11-21T09:42:36;1.20;1.00
38938;DHT22;24727;51.974;20.868;2023-11-21T09:45:26;1.20;1.00
38938;DHT22;24727;51.974;20.868;2023-11-21T09:47:55;1.40;1.00
38938;DHT22;24727;51.974;20.868;2023-11-21T09:50:27;1.60;1.00
38938;DHT22;24727;51.974;20.868;2023-11-21T09:52:58;1.40;1.00
38938;DHT22;24727;51.974;20.868;2023-11-21T09:55:28;1.30;1.00
38938;DHT22;24727;51.974;20.868;2023-11-21T09:57:56;1.20;1.00
38938;DHT22;24727;51.974;20.868;2023-11-21T10:00:23;1.20;1.00
38938;DHT22;24727;51.974;20.868;2023-11-21T10:02:52;1.20;1.00
38938;DHT22;24727;51.974;20.868;2023-11-21T10:05:19;1.20;1.00
38938;DHT22;24727;51.974;20.868;2023-11-21T10:07:49;1.30;1.00
38938;DHT22;24727;51.974;20.868;2023-11-21T10:10:20;1.40;1.00
38938;DHT22;24727;51.974;20.868;2023-11-21T10:12:53;1.60;1.00
38938;DHT22;24727;51.974;20.868;2023-11-21T10:15:25;1.60;1.00
38938;DHT22;24727;51.974;20.868;2023-11-21T10:17:53;1.10;1.00
38938;DHT22;24727;51.974;20.868;2023-11-21T10:20:20;1.00;1.00
38938;DHT22;24727;51.974;20.868;2023-11-21T10:22:49;1.10;1.00
38938;DHT22;24727;51.974;20.868;2023-11-21T10:25:15;0.60;1.00
38938;DHT22;24727;51.974;20.868;2023-11-21T10:27:41;0.70;1.00
38938;DHT22;24727;51.974;20.868;2023-11-21T10:30:10;0.80;1.00
38938;DHT22;24727;51.974;20.868;2023-11-21T10:32:39;1.10;1.00
38938;DHT22;24727;51.974;20.868;2023-11-21T10:35:07;1.20;1.00
38938;DHT22;24727;51.974;20.868;2023-11-21T10:37:36;1.10;1.00
38938;DHT22;24727;51.974;20.868;2023-11-21T10:40:10;1.10;1.00
38938;DHT22;24727;51.974;20.868;2023-11-21T10:42:39;1.10;1.00
38938;DHT22;24727;51.974;20.868;2023-11-21T10:45:06;1.20;1.00
38938;DHT22;24727;51.974;20.868;2023-11-21T10:47:39;1.40;1.00
38938;DHT22;24727;51.974;20.868;2023-11-21T10:50:05;1.30;1.00
38938;DHT22;24727;51.974;20.868;2023-11-21T10:52:45;1.00;1.00
38938;DHT22;24727;51.974;20.868;2023-11-21T10:55:19;1.00;1.00
38938;DHT22;24727;51.974;20.868;2023-11-21T10:57:53;0.90;1.00
38938;DHT22;24727;51.974;20.868;2023-11-21T11:00:19;0.80;1.00
38938;DHT22;24727;51.974;20.868;2023-11-21T11:02:52;0.90;1.00
38938;DHT22;24727;51.974;20.868;2023-11-21T11:05:23;0.90;1.00
38938;DHT22;24727;51.974;20.868;2023-11-21T11:07:52;1.00;1.00
38938;DHT22;24727;51.974;20.868;2023-11-21T11:10:25;1.20;1.00
38938;DHT22;24727;51.974;20.868;2023-11-21T11:12:54;1.20;1.00
38938;DHT22;24727;51.974;20.868;2023-11-21T11:15:22;1.20;1.00
38938;DHT22;24727;51.974;20.868;2023-11-21T11:17:48;1.10;1.00
38938;DHT22;24727;51.974;20.868;2023-11-21T11:20:16;1.00;1.00
38938;DHT22;24727;51.974;20.868;2023-11-21T11:25:40;1.00;1.00
38938;DHT22;24727;51.974;20.868;2023-11-21T11:28:27;0.70;1.00
38938;DHT22;24727;51.974;20.868;2023-11-21T11:31:10;0.80;1.00
38938;DHT22;24727;51.974;20.868;2023-11-21T11:33:53;0.90;1.00
38938;DHT22;24727;51.974;20.868;2023-11-21T11:36:48;0.90;1.00
38938;DHT22;24727;51.974;20.868;2023-11-21T11:39:27;0.90;1.00
38938;DHT22;24727;51.974;20.868;2023-11-21T11:41:57;0.80;1.00
38938;DHT22;24727;51.974;20.868;2023-11-21T11:47:32;0.80;1.00
38938;DHT22;24727;51.974;20.868;2023-11-21T11:50:11;0.50;1.00
38938;DHT22;24727;51.974;20.868;2023-11-21T11:52:47;0.50;1.00
38938;DHT22;24727;51.974;20.868;2023-11-21T11:55:15;0.70;1.00
38938;DHT22;24727;51.974;20.868;2023-11-21T11:57:55;0.90;1.00
38938;DHT22;24727;51.974;20.868;2023-11-21T12:03:01;1.00;1.00
38938;DHT22;24727;51.974;20.868;2023-11-21T12:05:33;0.90;1.00
38938;DHT22;24727;51.974;20.868;2023-11-21T12:08:03;1.00;1.00
38938;DHT22;24727;51.974;20.868;2023-11-21T12:10:30;0.90;1.00
38938;DHT22;24727;51.974;20.868;2023-11-21T12:13:09;0.90;1.00
38938;DHT22;24727;51.974;20.868;2023-11-21T12:15:42;0.70;1.00
38938;DHT22;24727;51.974;20.868;2023-11-21T12:18:08;0.80;1.00
38938;DHT22;24727;51.974;20.868;2023-11-21T12:20:35;0.60;1.00
38938;DHT22;24727;51.974;20.868;2023-11-21T12:23:08;0.70;1.00
38938;DHT22;24727;51.974;20.868;2023-11-21T12:25:40;0.80;1.00
38938;DHT22;24727;51.974;20.868;2023-11-21T12:28:07;0.80;1.00
38938;DHT22;24727;51.974;20.868;2023-11-21T12:30:36;0.70;1.00
38938;DHT22;24727;51.974;20.868;2023-11-21T12:33:04;0.70;1.00
38938;DHT22;24727;51.974;20.868;2023-11-21T12:35:34;0.60;1.00
38938;DHT22;24727;51.974;20.868;2023-11-21T12:38:02;0.70;1.00
38938;DHT22;24727;51.974;20.868;2023-11-21T12:40:29;0.80;1.00
38938;DHT22;24727;51.974;20.868;2023-11-21T12:42:57;0.80;1.00
38938;DHT22;24727;51.974;20.868;2023-11-21T12:45:25;0.80;1.00
38938;DHT22;24727;51.974;20.868;2023-11-21T12:47:57;0.90;1.00
38938;DHT22;24727;51.974;20.868;2023-11-21T12:50:27;1.00;1.00
38938;DHT22;24727;51.974;20.868;2023-11-21T12:53:03;1.00;1.00
38938;DHT22;24727;51.974;20.868;2023-11-21T12:55:33;1.10;1.00
38938;DHT22;24727;51.974;20.868;2023-11-21T12:58:04;1.10;1.00
38938;DHT22;24727;51.974;20.868;2023-11-21T13:00:47;1.00;1.00
38938;DHT22;24727;51.974;20.868;2023-11-21T13:03:15;0.90;1.00
38938;DHT22;24727;51.974;20.868;2023-11-21T13:05:44;0.80;1.00
38938;DHT22;24727;51.974;20.868;2023-11-21T13:08:13;1.00;1.00
38938;DHT22;24727;51.974;20.868;2023-11-21T13:10:41;0.80;1.00
38938;DHT22;24727;51.974;20.868;2023-11-21T13:13:12;1.00;1.00
38938;DHT22;24727;51.974;20.868;2023-11-21T13:15:54;1.00;1.00
38938;DHT22;24727;51.974;20.868;2023-11-21T13:18:24;0.90;1.00
38938;DHT22;24727;51.974;20.868;2023-11-21T13:20:53;0.80;1.00
38938;DHT22;24727;51.974;20.868;2023-11-21T13:23:20;0.70;1.00
38938;DHT22;24727;51.974;20.868;2023-11-21T13:25:47;0.70;1.00
38938;DHT22;24727;51.974;20.868;2023-11-21T13:28:14;0.70;1.00
38938;DHT22;24727;51.974;20.868;2023-11-21T13:30:49;0.80;1.00
38938;DHT22;24727;51.974;20.868;2023-11-21T13:33:18;0.90;1.00
38938;DHT22;24727;51.974;20.868;2023-11-21T13:35:48;0.80;1.00
38938;DHT22;24727;51.974;20.868;2023-11-21T13:38:17;0.70;1.00
38938;DHT22;24727;51.974;20.868;2023-11-21T13:43:17;0.70;1.00
38938;DHT22;24727;51.974;20.868;2023-11-21T13:45:48;0.90;1.00
38938;DHT22;24727;51.974;20.868;2023-11-21T13:48:21;0.90;1.00
38938;DHT22;24727;51.974;20.868;2023-11-21T13:50:54;1.00;1.00
38938;DHT22;24727;51.974;20.868;2023-11-21T13:53:34;1.00;1.00
38938;DHT22;24727;51.974;20.868;2023-11-21T13:56:03;1.10;1.00
38938;DHT22;24727;51.974;20.868;2023-11-21T13:58:30;1.10;1.00
38938;DHT22;24727;51.974;20.868;2023-11-21T14:01:19;1.00;1.00
38938;DHT22;24727;51.974;20.868;2023-11-21T14:04:02;1.10;1.00
38938;DHT22;24727;51.974;20.868;2023-11-21T14:06:50;1.20;1.00
38938;DHT22;24727;51.974;20.868;2023-11-21T14:09:21;1.40;1.00
38938;DHT22;24727;51.974;20.868;2023-11-21T14:12:03;1.50;1.00
38938;DHT22;24727;51.974;20.868;2023-11-21T14:14:33;1.30;1.00
38938;DHT22;24727;51.974;20.868;2023-11-21T14:17:00;1.10;1.00
38938;DHT22;24727;51.974;20.868;2023-11-21T14:19:33;1.30;1.00
38938;DHT22;24727;51.974;20.868;2023-11-21T14:22:02;1.10;1.00
38938;DHT22;24727;51.974;20.868;2023-11-21T14:24:30;0.90;1.00
38938;DHT22;24727;51.974;20.868;2023-11-21T14:26:58;1.10;1.00
38938;DHT22;24727;51.974;20.868;2023-11-21T14:29:24;0.90;1.00
38938;DHT22;24727;51.974;20.868;2023-11-21T14:31:50;1.00;1.00
38938;DHT22;24727;51.974;20.868;2023-11-21T14:34:17;0.80;1.00
38938;DHT22;24727;51.974;20.868;2023-11-21T14:36:44;1.00;1.00
38938;DHT22;24727;51.974;20.868;2023-11-21T14:39:10;0.90;1.00
38938;DHT22;24727;51.974;20.868;2023-11-21T14:41:55;0.30;1.00
38938;DHT22;24727;51.974;20.868;2023-11-21T14:44:32;0.30;1.00
38938;DHT22;24727;51.974;20.868;2023-11-21T14:47:00;0.50;1.00
38938;DHT22;24727;51.974;20.868;2023-11-21T14:49:31;0.50;1.00
38938;DHT22;24727;51.974;20.868;2023-11-21T14:52:08;0.80;1.00
38938;DHT22;24727;51.974;20.868;2023-11-21T14:54:50;1.00;1.00
38938;DHT22;24727;51.974;20.868;2023-11-21T14:57:25;1.00;1.00
38938;DHT22;24727;51.974;20.868;2023-11-21T14:59:54;0.70;1.00
38938;DHT22;24727;51.974;20.868;2023-11-21T15:02:23;0.60;1.00
38938;DHT22;24727;51.974;20.868;2023-11-21T15:05:10;0.80;1.00
38938;DHT22;24727;51.974;20.868;2023-11-21T15:07:42;0.70;1.00
38938;DHT22;24727;51.974;20.868;2023-11-21T15:10:10;0.40;1.00
38938;DHT22;24727;51.974;20.868;2023-11-21T15:12:41;0.60;1.00
38938;DHT22;24727;51.974;20.868;2023-11-21T15:15:11;0.50;1.00
38938;DHT22;24727;51.974;20.868;2023-11-21T15:17:41;0.60;1.00
38938;DHT22;24727;51.974;20.868;2023-11-21T15:20:10;0.60;1.00
38938;DHT22;24727;51.974;20.868;2023-11-21T15:22:39;0.40;1.00
38938;DHT22;24727;51.974;20.868;2023-11-21T15:25:07;0.70;1.00
38938;DHT22;24727;51.974;20.868;2023-11-21T15:27:36;0.80;1.00
38938;DHT22;24727;51.974;20.868;2023-11-21T15:30:05;0.90;1.00
38938;DHT22;24727;51.974;20.868;2023-11-21T15:32:32;0.60;1.00
38938;DHT22;24727;51.974;20.868;2023-11-21T15:34:59;0.50;1.00
38938;DHT22;24727;51.974;20.868;2023-11-21T15:37:25;0.70;1.00
38938;DHT22;24727;51.974;20.868;2023-11-21T15:39:54;0.60;1.00
38938;DHT22;24727;51.974;20.868;2023-11-21T15:42:22;0.90;1.00
38938;DHT22;24727;51.974;20.868;2023-11-21T15:44:49;0.80;1.00
38938;DHT22;24727;51.974;20.868;2023-11-21T15:47:17;0.90;1.00
38938;DHT22;24727;51.974;20.868;2023-11-21T15:49:44;1.00;1.00
38938;DHT22;24727;51.974;20.868;2023-11-21T15:52:11;0.80;1.00
38938;DHT22;24727;51.974;20.868;2023-11-21T15:54:44;0.70;1.00
38938;DHT22;24727;51.974;20.868;2023-11-21T15:57:12;0.70;1.00
38938;DHT22;24727;51.974;20.868;2023-11-21T15:59:40;0.50;1.00
38938;DHT22;24727;51.974;20.868;2023-11-21T16:02:08;0.70;1.00
38938;DHT22;24727;51.974;20.868;2023-11-21T16:04:36;0.90;1.00
38938;DHT22;24727;51.974;20.868;2023-11-21T16:07:04;0.80;1.00